KMER/MER METAR and TAF weather

Enter ICAO airport designator
Station Type Date Time Source
KMER METAR 2019/12/11 23:45 UTC NOAA

KMER 112345Z 13006KT 2SM BR OVC006 12/12 A3024


Station Type Date Time Source
KMER Decoded METAR 2019/12/11 23:45 UTC NOAA

Merced / Castle Air Force Base, CA, United States (KMER) 37-22N 120-34W 60M
Dec 11, 2019 - 06:45 PM EST / 2019.12.11 2345 UTC
Wind: from the SE (130 degrees) at 7 MPH (6 KT):0
Visibility: 2 mile(s):0
Sky conditions: overcast
Weather: mist
Temperature: 53 F (12 C)
Dew Point: 53 F (12 C)
Relative Humidity: 100%
Pressure (altimeter): 30.24 in. Hg (1024 hPa)
ob: KMER 112345Z 13006KT 2SM BR OVC006 12/12 A3024
cycle: 0

Station Type Date Time Source
KMER TAF 2019/12/12 06:30 UTC NOAA

TAF KMER 120525Z 1206/1306 11006KT 2SM BR OVC120
FM121200 14004KT 1SM BR OVC004
FM122100 14003KT 4SM HZ BKN050

Example: see airport list